createdAt,value
2023-01-13T00:03:19.636Z,0.00
2023-01-13T00:08:19.582Z,0.00
2023-01-13T00:13:19.513Z,0.00
2023-01-13T00:18:19.445Z,0.00
2023-01-13T00:23:19.379Z,0.00
2023-01-13T00:28:19.315Z,0.00
2023-01-13T00:33:19.256Z,0.00
2023-01-13T00:38:19.174Z,0.00
2023-01-13T00:43:19.110Z,0.00
2023-01-13T00:48:19.044Z,0.00
2023-01-13T00:53:18.979Z,0.00
2023-01-13T00:58:18.898Z,0.00
2023-01-13T01:03:18.836Z,0.00
2023-01-13T01:08:18.782Z,0.00
2023-01-13T01:13:18.699Z,0.00
2023-01-13T01:18:18.625Z,0.00
2023-01-13T01:23:18.562Z,0.00
2023-01-13T01:28:18.521Z,0.00
2023-01-13T01:33:18.432Z,0.00
2023-01-13T01:38:18.371Z,0.00
2023-01-13T01:43:18.303Z,0.00
2023-01-13T01:48:18.227Z,0.00
2023-01-13T01:53:18.157Z,0.00
2023-01-13T01:58:18.124Z,0.00
2023-01-13T02:03:18.043Z,0.00
2023-01-13T02:08:17.980Z,0.00
2023-01-13T02:13:17.911Z,0.00
2023-01-13T02:18:17.832Z,0.00
2023-01-13T02:23:17.772Z,0.00
2023-01-13T02:28:17.709Z,0.00
2023-01-13T02:33:17.639Z,0.00
2023-01-13T02:38:17.562Z,0.00
2023-01-13T02:43:17.495Z,0.00
2023-01-13T02:48:17.431Z,0.00
2023-01-13T02:53:17.358Z,0.00
2023-01-13T02:58:17.303Z,0.00
2023-01-13T03:03:17.090Z,0.00
2023-01-13T03:08:17.033Z,0.00
2023-01-13T03:13:16.961Z,0.00
2023-01-13T03:18:16.896Z,0.00
2023-01-13T03:23:16.830Z,0.00
2023-01-13T03:28:16.769Z,0.00
2023-01-13T03:33:16.687Z,0.00
2023-01-13T03:38:16.639Z,0.00
2023-01-13T03:43:16.556Z,0.00
2023-01-13T03:48:16.505Z,0.00
2023-01-13T03:53:16.438Z,0.00
2023-01-13T03:58:16.420Z,0.00
2023-01-13T04:03:16.294Z,0.00
2023-01-13T04:08:16.230Z,0.00
2023-01-13T04:13:16.155Z,0.00
2023-01-13T04:18:16.098Z,0.00
2023-01-13T04:23:16.041Z,0.00
2023-01-13T04:28:15.964Z,0.00
2023-01-13T04:33:15.891Z,0.00
2023-01-13T04:38:15.836Z,0.00
2023-01-13T04:43:16.026Z,0.00
2023-01-13T04:48:15.700Z,0.00
2023-01-13T04:53:15.656Z,0.00
2023-01-13T04:58:15.563Z,0.00
2023-01-13T05:03:15.500Z,0.00
2023-01-13T05:08:15.428Z,0.00
2023-01-13T05:13:15.363Z,0.00
2023-01-13T05:18:15.297Z,0.00
2023-01-13T05:23:15.220Z,0.00
2023-01-13T05:28:15.170Z,0.00
2023-01-13T05:33:15.089Z,0.00
2023-01-13T05:38:15.036Z,0.00
2023-01-13T05:43:14.951Z,0.00
2023-01-13T05:48:14.896Z,0.00
2023-01-13T05:53:14.819Z,0.00
2023-01-13T05:58:14.784Z,0.00
2023-01-13T06:03:14.798Z,0.00
2023-01-13T06:08:14.624Z,0.00
2023-01-13T06:13:14.552Z,0.00
2023-01-13T06:18:14.496Z,0.00
2023-01-13T06:23:14.418Z,0.00
2023-01-13T06:28:14.357Z,0.00
2023-01-13T06:33:14.289Z,0.00
2023-01-13T06:38:14.221Z,4.00
2023-01-13T06:43:16.155Z,0.00
2023-01-13T06:48:14.090Z,8.00
2023-01-13T06:53:14.016Z,12.00
2023-01-13T06:58:13.966Z,8.00
2023-01-13T07:03:13.878Z,16.00
2023-01-13T07:08:13.818Z,24.00
2023-01-13T07:13:13.743Z,40.00
2023-01-13T07:18:13.685Z,88.00
2023-01-13T07:23:13.608Z,120.00
2023-01-13T07:28:13.548Z,172.00
2023-01-13T07:33:13.479Z,236.00
2023-01-13T07:38:13.416Z,184.00
2023-01-13T07:43:13.339Z,256.00
2023-01-13T07:48:13.279Z,432.00
2023-01-13T07:53:13.204Z,1232.00
2023-01-13T07:58:13.146Z,1036.00
2023-01-13T08:03:13.071Z,1304.00
2023-01-13T08:08:13.012Z,2440.00
2023-01-13T08:13:12.945Z,5148.00
2023-01-13T08:18:12.880Z,4336.00
2023-01-13T08:23:12.820Z,5328.00
2023-01-13T08:28:12.754Z,5576.00
2023-01-13T08:33:12.675Z,2864.00
2023-01-13T08:38:12.617Z,2860.00
2023-01-13T08:43:12.543Z,2176.00
2023-01-13T08:48:12.481Z,1272.00
2023-01-13T08:53:12.427Z,1032.00
2023-01-13T08:58:15.726Z,1908.00
2023-01-13T09:03:12.276Z,1984.00
2023-01-13T09:08:12.232Z,1956.00
2023-01-13T09:13:12.145Z,3020.00
2023-01-13T09:18:12.100Z,2940.00
2023-01-13T09:23:12.027Z,1628.00
2023-01-13T09:28:11.958Z,1536.00
2023-01-13T09:33:11.879Z,796.00
2023-01-13T09:38:11.836Z,1072.00
2023-01-13T09:43:11.751Z,1588.00
2023-01-13T09:48:11.689Z,4100.00
2023-01-13T09:53:11.619Z,5340.00
2023-01-13T09:58:11.600Z,8052.00
2023-01-13T10:03:11.530Z,22144.00
2023-01-13T10:08:11.424Z,46240.00
2023-01-13T10:13:11.346Z,50784.00
2023-01-13T10:18:11.325Z,44064.00
2023-01-13T10:23:11.218Z,43520.00
2023-01-13T10:28:11.160Z,44160.00
2023-01-13T10:33:11.088Z,37472.00
2023-01-13T10:38:11.027Z,24064.00
2023-01-13T10:43:10.948Z,44384.00
2023-01-13T10:48:10.892Z,46720.00
2023-01-13T10:53:10.818Z,41120.00
2023-01-13T10:58:10.759Z,44192.00
2023-01-13T11:03:10.683Z,40192.00
2023-01-13T11:08:10.643Z,39552.00
2023-01-13T11:13:10.550Z,40352.00
2023-01-13T11:18:10.493Z,29408.00
2023-01-13T11:23:10.417Z,31200.00
2023-01-13T11:28:10.356Z,23872.00
2023-01-13T11:33:10.333Z,19840.00
2023-01-13T11:38:10.220Z,20256.00
2023-01-13T11:43:10.348Z,17792.00
2023-01-13T11:48:10.338Z,12760.00
2023-01-13T11:53:10.317Z,11180.00
2023-01-13T11:58:10.360Z,5936.00
2023-01-13T12:03:10.448Z,7184.00
2023-01-13T12:08:10.423Z,8376.00
2023-01-13T12:13:09.749Z,13752.00
2023-01-13T12:18:09.694Z,7280.00
2023-01-13T12:23:09.616Z,4192.00
2023-01-13T12:28:09.555Z,3320.00
2023-01-13T12:33:09.480Z,3512.00
2023-01-13T12:38:09.422Z,2708.00
2023-01-13T12:43:09.350Z,2128.00
2023-01-13T12:48:09.292Z,2580.00
2023-01-13T12:53:09.217Z,1944.00
2023-01-13T12:58:09.158Z,2100.00
2023-01-13T13:03:09.091Z,3296.00
2023-01-13T13:08:09.021Z,3568.00
2023-01-13T13:13:08.969Z,3220.00
2023-01-13T13:18:08.883Z,3244.00
2023-01-13T13:23:08.833Z,3232.00
2023-01-13T13:28:08.750Z,3328.00
2023-01-13T13:33:08.695Z,3728.00
2023-01-13T13:38:08.616Z,3740.00
2023-01-13T13:43:08.557Z,3624.00
2023-01-13T13:48:08.486Z,3424.00
2023-01-13T13:53:08.431Z,3824.00
2023-01-13T13:58:08.346Z,2932.00
2023-01-13T14:03:08.297Z,3532.00
2023-01-13T14:08:08.178Z,3240.00
2023-01-13T14:13:08.115Z,2732.00
2023-01-13T14:18:08.032Z,2468.00
2023-01-13T14:23:08.014Z,2244.00
2023-01-13T14:28:07.908Z,1844.00
2023-01-13T14:33:07.826Z,1864.00
2023-01-13T14:38:07.748Z,1736.00
2023-01-13T14:43:07.700Z,1612.00
2023-01-13T14:48:07.605Z,1468.00
2023-01-13T14:53:07.545Z,1316.00
2023-01-13T14:58:07.468Z,1160.00
2023-01-13T15:03:07.501Z,1000.00
2023-01-13T15:08:07.354Z,820.00
2023-01-13T15:13:07.281Z,632.00
2023-01-13T15:18:07.258Z,472.00
2023-01-13T15:23:07.134Z,348.00
2023-01-13T15:28:07.089Z,240.00
2023-01-13T15:33:07.001Z,156.00
2023-01-13T15:38:06.930Z,92.00
2023-01-13T15:43:06.872Z,52.00
2023-01-13T15:48:06.793Z,28.00
2023-01-13T15:53:06.736Z,12.00
2023-01-13T15:58:06.658Z,4.00
2023-01-13T16:03:06.636Z,0.00
2023-01-13T16:08:06.541Z,0.00
2023-01-13T16:13:06.478Z,0.00
2023-01-13T16:18:06.411Z,0.00
2023-01-13T16:23:06.369Z,0.00
2023-01-13T16:28:06.296Z,0.00
2023-01-13T16:33:06.248Z,0.00
2023-01-13T16:38:06.184Z,0.00
2023-01-13T16:43:06.132Z,0.00
2023-01-13T16:48:06.065Z,0.00
2023-01-13T16:53:06.021Z,0.00
2023-01-13T16:58:05.945Z,0.00
2023-01-13T17:03:05.896Z,0.00
2023-01-13T17:08:05.816Z,0.00
2023-01-13T17:13:15.678Z,0.00
2023-01-13T17:18:05.685Z,0.00
2023-01-13T17:23:05.628Z,0.00
2023-01-13T17:28:05.573Z,0.00
2023-01-13T17:33:05.493Z,0.00
2023-01-13T17:38:05.423Z,0.00
2023-01-13T17:43:05.366Z,0.00
2023-01-13T17:48:05.289Z,0.00
2023-01-13T17:53:05.227Z,0.00
2023-01-13T17:58:05.156Z,0.00
2023-01-13T18:03:05.133Z,0.00
2023-01-13T18:08:05.015Z,0.00
2023-01-13T18:13:04.957Z,0.00
2023-01-13T18:18:05.012Z,0.00
2023-01-13T18:23:04.823Z,0.00
2023-01-13T18:28:04.753Z,0.00
2023-01-13T18:33:04.704Z,0.00
2023-01-13T18:38:04.626Z,0.00
2023-01-13T18:43:04.558Z,0.00
2023-01-13T18:48:04.493Z,0.00
2023-01-13T18:53:04.425Z,0.00
2023-01-13T18:58:04.355Z,0.00
2023-01-13T19:08:04.226Z,0.00
2023-01-13T19:13:04.174Z,0.00
2023-01-13T19:18:04.094Z,0.00
2023-01-13T19:23:04.034Z,0.00
2023-01-13T19:28:03.957Z,0.00
2023-01-13T19:33:03.898Z,0.00
2023-01-13T19:38:03.830Z,0.00
2023-01-13T19:43:03.766Z,0.00
2023-01-13T19:48:03.702Z,0.00
2023-01-13T19:53:03.634Z,0.00
2023-01-13T19:58:03.574Z,0.00
2023-01-13T20:03:03.662Z,0.00
2023-01-13T20:08:03.433Z,0.00
2023-01-13T20:13:03.369Z,0.00
2023-01-13T20:18:03.293Z,0.00
2023-01-13T20:23:03.235Z,0.00
2023-01-13T20:28:03.163Z,0.00
2023-01-13T20:33:03.125Z,0.00
2023-01-13T20:38:03.034Z,0.00
2023-01-13T20:43:02.965Z,0.00
2023-01-13T20:48:02.893Z,0.00
2023-01-13T20:53:02.833Z,0.00
2023-01-13T20:58:02.761Z,0.00
2023-01-13T21:03:02.708Z,0.00
2023-01-13T21:08:02.626Z,0.00
2023-01-13T21:13:02.568Z,0.00
2023-01-13T21:18:02.494Z,0.00
2023-01-13T21:23:02.452Z,0.00
2023-01-13T21:28:02.361Z,0.00
2023-01-13T21:33:02.301Z,0.00
2023-01-13T21:38:02.227Z,0.00
2023-01-13T21:43:02.168Z,0.00
2023-01-13T21:48:02.125Z,0.00
2023-01-13T21:53:02.035Z,0.00
2023-01-13T21:58:01.961Z,0.00
2023-01-13T22:03:01.910Z,0.00
2023-01-13T22:08:01.836Z,0.00
2023-01-13T22:13:01.768Z,0.00
2023-01-13T22:18:01.696Z,0.00
2023-01-13T22:23:01.635Z,0.00
2023-01-13T22:28:01.571Z,0.00
2023-01-13T22:33:01.562Z,0.00
2023-01-13T22:38:01.435Z,0.00
2023-01-13T22:43:01.397Z,0.00
2023-01-13T22:48:01.296Z,0.00
2023-01-13T22:53:01.235Z,0.00
2023-01-13T22:58:01.169Z,0.00
2023-01-13T23:03:01.104Z,0.00
2023-01-13T23:08:01.028Z,0.00
2023-01-13T23:13:00.973Z,0.00
2023-01-13T23:18:00.897Z,0.00
2023-01-13T23:23:00.851Z,0.00
2023-01-13T23:28:00.769Z,0.00
2023-01-13T23:33:00.708Z,0.00
2023-01-13T23:38:00.631Z,0.00
2023-01-13T23:43:00.580Z,0.00
2023-01-13T23:48:00.532Z,0.00
2023-01-13T23:53:00.437Z,0.00
2023-01-13T23:58:00.363Z,0.00
